Time,TemperatureF,DewpointF,PressureIn,WindDirection,WindDirectionDegrees,WindSpeedMPH,WindSpeedGustMPH,Humidity,HourlyPrecipIn,Conditions,Clouds,dailyrainin,SoftwareType,DateUTC
2013-08-05 00:02:00,60.0,57.0,30.13,NNE,16,0.0,-999.0,91,-99.99,,,-99.99,,2013-08-05 04:02:00,
2013-08-05 00:12:00,60.0,57.0,30.13,NNE,16,0.0,-999.0,91,-99.99,,,-99.99,,2013-08-05 04:12:00,
2013-08-05 00:22:00,60.0,57.0,30.13,NNE,16,0.0,-999.0,91,-99.99,,,-99.99,,2013-08-05 04:22:00,
2013-08-05 00:32:00,60.0,57.0,30.13,NNE,16,0.0,-999.0,91,-99.99,,,-99.99,,2013-08-05 04:32:00,
2013-08-05 00:43:00,59.0,57.0,30.12,NNE,16,0.0,-999.0,92,-99.99,,,-99.99,,2013-08-05 04:43:00,
2013-08-05 00:52:00,59.0,57.0,30.13,NNE,16,0.0,-999.0,92,-99.99,,,-99.99,,2013-08-05 04:52:00,
2013-08-05 01:02:00,59.0,57.0,30.13,NNE,16,0.0,-999.0,92,-99.99,,,-99.99,,2013-08-05 05:02:00,
2013-08-05 01:12:00,59.0,57.0,30.13,NNE,16,0.0,-999.0,93,-99.99,,,-99.99,,2013-08-05 05:12:00,
2013-08-05 01:22:00,59.0,57.0,30.13,NNE,16,0.0,-999.0,93,-99.99,,,-99.99,,2013-08-05 05:22:00,
2013-08-05 01:32:00,58.0,56.0,30.14,NNE,16,0.0,-999.0,93,-99.99,,,-99.99,,2013-08-05 05:32:00,
2013-08-05 01:43:00,58.0,56.0,30.13,NNE,16,0.0,-999.0,93,-99.99,,,-99.99,,2013-08-05 05:43:00,
2013-08-05 01:53:00,58.0,56.0,30.13,NNE,16,0.0,-999.0,93,-99.99,,,-99.99,,2013-08-05 05:53:00,
2013-08-05 02:02:00,58.0,56.0,30.12,NNE,16,0.0,-999.0,93,-99.99,,,-99.99,,2013-08-05 06:02:00,
2013-08-05 02:12:00,58.0,56.0,30.12,NNE,16,0.0,-999.0,93,-99.99,,,-99.99,,2013-08-05 06:12:00,
2013-08-05 02:22:00,58.0,56.0,30.12,NNE,16,0.0,-999.0,93,-99.99,,,-99.99,,2013-08-05 06:22:00,
2013-08-05 02:32:00,57.0,55.0,30.12,NNE,16,0.0,-999.0,93,-99.99,,,-99.99,,2013-08-05 06:32:00,
2013-08-05 02:43:00,57.0,55.0,30.12,NNE,16,0.0,-999.0,94,-99.99,,,-99.99,,2013-08-05 06:43:00,
2013-08-05 02:52:00,57.0,55.0,30.12,NNE,16,0.0,-999.0,94,-99.99,,,-99.99,,2013-08-05 06:52:00,
2013-08-05 03:02:00,57.0,55.0,30.11,NNE,16,0.0,-999.0,93,-99.99,,,-99.99,,2013-08-05 07:02:00,
2013-08-05 03:12:00,57.0,55.0,30.11,NNE,16,0.0,-999.0,93,-99.99,,,-99.99,,2013-08-05 07:12:00,
2013-08-05 03:22:00,57.0,55.0,30.11,NNE,16,0.0,-999.0,93,-99.99,,,-99.99,,2013-08-05 07:22:00,
2013-08-05 03:32:00,56.0,54.0,30.11,NNE,16,0.0,-999.0,94,-99.99,,,-99.99,,2013-08-05 07:32:00,
2013-08-05 03:43:00,56.0,54.0,30.11,NNE,16,0.0,-999.0,94,-99.99,,,-99.99,,2013-08-05 07:43:00,
2013-08-05 03:53:00,56.0,54.0,30.11,NNE,16,0.0,-999.0,94,-99.99,,,-99.99,,2013-08-05 07:53:00,
2013-08-05 04:02:00,56.0,54.0,30.11,NNE,16,0.0,-999.0,94,-99.99,,,-99.99,,2013-08-05 08:02:00,
2013-08-05 04:12:00,56.0,54.0,30.11,NNE,16,0.0,-999.0,94,-99.99,,,-99.99,,2013-08-05 08:12:00,
2013-08-05 04:22:00,56.0,54.0,30.11,NNE,16,0.0,-999.0,94,-99.99,,,-99.99,,2013-08-05 08:22:00,
2013-08-05 04:34:00,55.0,53.0,30.11,NNE,16,0.0,-999.0,94,-99.99,,,-99.99,,2013-08-05 08:34:00,
2013-08-05 04:49:00,55.0,53.0,30.11,NNE,16,0.0,-999.0,94,-99.99,,,-99.99,,2013-08-05 08:49:00,
2013-08-05 05:06:00,55.0,53.0,30.12,NNE,16,0.0,-999.0,94,-99.99,,,-99.99,,2013-08-05 09:06:00,
2013-08-05 05:27:00,55.0,54.0,30.12,NNE,16,0.0,-999.0,95,-99.99,,,-99.99,,2013-08-05 09:27:00,
2013-08-05 05:47:00,55.0,53.0,30.11,NNE,16,0.0,-999.0,94,-99.99,,,-99.99,,2013-08-05 09:47:00,
2013-08-05 05:53:00,55.0,53.0,30.11,NNE,16,0.0,-999.0,94,-99.99,,,-99.99,,2013-08-05 09:53:00,
2013-08-05 06:10:00,55.0,53.0,30.11,NNE,16,0.0,-999.0,94,-99.99,,,-99.99,,2013-08-05 10:10:00,
2013-08-05 06:28:00,55.0,53.0,30.11,NNE,16,0.0,-999.0,94,-99.99,,,-99.99,,2013-08-05 10:28:00,
2013-08-05 06:52:00,54.0,52.0,30.12,NNE,16,0.0,-999.0,94,-99.99,,,-99.99,,2013-08-05 10:52:00,
2013-08-05 07:09:00,53.0,51.0,30.12,NNE,16,0.0,-999.0,94,-99.99,,,-99.99,,2013-08-05 11:09:00,
2013-08-05 07:28:00,53.0,51.0,30.12,NNE,16,0.0,-999.0,94,-99.99,,,-99.99,,2013-08-05 11:28:00,
2013-08-05 07:38:00,54.0,53.0,30.12,NNE,16,0.0,-999.0,95,-99.99,,,-99.99,,2013-08-05 11:38:00,
2013-08-05 07:49:00,55.0,54.0,30.12,NNE,16,0.0,-999.0,96,-99.99,,,-99.99,,2013-08-05 11:49:00,
2013-08-05 07:57:00,55.0,54.0,30.12,NNE,16,0.0,-999.0,96,-99.99,,,-99.99,,2013-08-05 11:57:00,
2013-08-05 08:07:00,56.0,55.0,30.13,NNE,16,0.0,-999.0,96,-99.99,,,-99.99,,2013-08-05 12:07:00,
2013-08-05 08:17:00,56.0,55.0,30.13,NNE,16,0.0,-999.0,96,-99.99,,,-99.99,,2013-08-05 12:17:00,
2013-08-05 08:28:00,56.0,55.0,30.13,NNE,16,0.0,-999.0,96,-99.99,,,-99.99,,2013-08-05 12:28:00,
2013-08-05 08:33:00,58.0,57.0,30.14,NNE,16,0.0,-999.0,96,-99.99,,,-99.99,,2013-08-05 12:33:00,
2013-08-05 08:49:00,59.0,58.0,30.14,NNE,16,0.0,-999.0,95,-99.99,,,-99.99,,2013-08-05 12:49:00,
2013-08-05 09:02:00,61.0,60.0,30.14,NNE,16,0.0,-999.0,95,-99.99,,,-99.99,,2013-08-05 13:02:00,
2013-08-05 09:27:00,61.0,60.0,30.14,NNE,16,0.0,-999.0,95,-99.99,,,-99.99,,2013-08-05 13:27:00,
2013-08-05 09:39:00,64.0,61.0,30.14,NW,306,0.0,-999.0,89,-99.99,,,-99.99,,2013-08-05 13:39:00,
2013-08-05 09:54:00,66.0,62.0,30.13,NW,306,0.0,-999.0,86,-99.99,,,-99.99,,2013-08-05 13:54:00,
2013-08-05 10:05:00,68.0,63.0,30.13,NW,306,0.0,-999.0,84,-99.99,,,-99.99,,2013-08-05 14:05:00,
2013-08-05 10:17:00,68.0,63.0,30.13,WSW,246,0.0,-999.0,83,-99.99,,,-99.99,,2013-08-05 14:17:00,
2013-08-05 10:28:00,68.0,63.0,30.13,WSW,246,0.0,-999.0,83,-99.99,,,-99.99,,2013-08-05 14:28:00,
2013-08-05 10:39:00,71.0,62.0,30.12,SW,232,1.0,-999.0,74,-99.99,,,-99.99,,2013-08-05 14:39:00,
2013-08-05 10:47:00,71.0,61.0,30.12,SE,146,2.0,-999.0,71,-99.99,,,-99.99,,2013-08-05 14:47:00,
2013-08-05 10:54:00,71.0,61.0,30.12,SE,146,2.0,-999.0,71,-99.99,,,-99.99,,2013-08-05 14:54:00,
2013-08-05 11:07:00,72.0,62.0,30.12,ESE,105,2.0,-999.0,70,-99.99,,,-99.99,,2013-08-05 15:07:00,
2013-08-05 11:25:00,72.0,61.0,30.12,ESE,103,2.0,-999.0,69,-99.99,,,-99.99,,2013-08-05 15:25:00,
2013-08-05 11:38:00,73.0,60.0,30.12,East,80,2.0,-999.0,63,-99.99,,,-99.99,,2013-08-05 15:38:00,
2013-08-05 11:57:00,75.0,60.0,30.11,East,80,2.0,-999.0,60,-99.99,,,-99.99,,2013-08-05 15:57:00,
2013-08-05 12:17:00,76.0,62.0,30.11,East,80,1.0,-999.0,63,-99.99,,,-99.99,,2013-08-05 16:17:00,
2013-08-05 12:26:00,76.0,62.0,30.11,East,80,0.0,-999.0,61,-99.99,,,-99.99,,2013-08-05 16:26:00,
2013-08-05 12:33:00,77.0,57.0,30.10,NE,40,1.0,-999.0,51,-99.99,,,-99.99,,2013-08-05 16:33:00,
2013-08-05 12:45:00,77.0,57.0,30.09,ESE,105,2.0,-999.0,50,-99.99,,,-99.99,,2013-08-05 16:45:00,
2013-08-05 12:57:00,77.0,57.0,30.09,ESE,105,2.0,-999.0,50,-99.99,,,-99.99,,2013-08-05 16:57:00,
2013-08-05 13:07:00,77.0,60.0,30.09,NE,53,3.0,-999.0,55,-99.99,,,-99.99,,2013-08-05 17:07:00,
2013-08-05 13:22:00,77.0,61.0,30.09,NE,53,2.0,-999.0,58,-99.99,,,-99.99,,2013-08-05 17:22:00,
2013-08-05 13:38:00,77.0,58.0,30.09,NE,52,2.0,-999.0,52,-99.99,,,-99.99,,2013-08-05 17:38:00,
2013-08-05 13:48:00,78.0,59.0,30.08,NNE,32,1.0,-999.0,52,-99.99,,,-99.99,,2013-08-05 17:48:00,
2013-08-05 13:57:00,78.0,59.0,30.08,NNE,32,1.0,-999.0,52,-99.99,,,-99.99,,2013-08-05 17:57:00,
2013-08-05 14:08:00,77.0,60.0,30.08,NNE,32,0.0,-999.0,56,-99.99,,,-99.99,,2013-08-05 18:08:00,
2013-08-05 14:13:00,77.0,60.0,30.08,NNE,32,0.0,-999.0,56,-99.99,,,-99.99,,2013-08-05 18:13:00,
2013-08-05 14:26:00,77.0,59.0,30.08,NNE,32,0.0,-999.0,53,-99.99,,,-99.99,,2013-08-05 18:26:00,
2013-08-05 14:54:00,79.0,59.0,30.06,South,173,3.0,-999.0,50,-99.99,,,-99.99,,2013-08-05 18:54:00,
2013-08-05 15:05:00,79.0,58.0,30.06,ESE,119,1.0,-999.0,49,-99.99,,,-99.99,,2013-08-05 19:05:00,
2013-08-05 15:14:00,79.0,58.0,30.06,ESE,119,1.0,-999.0,49,-99.99,,,-99.99,,2013-08-05 19:14:00,
2013-08-05 15:26:00,80.0,61.0,30.05,SE,140,2.0,-999.0,52,-99.99,,,-99.99,,2013-08-05 19:26:00,
2013-08-05 15:39:00,80.0,58.0,30.06,SSW,196,2.0,-999.0,47,-99.99,,,-99.99,,2013-08-05 19:39:00,
2013-08-05 15:50:00,81.0,61.0,30.06,North,5,2.0,-999.0,50,-99.99,,,-99.99,,2013-08-05 19:50:00,
2013-08-05 16:09:00,81.0,61.0,30.05,NNE,13,3.0,-999.0,50,-99.99,,,-99.99,,2013-08-05 20:09:00,
2013-08-05 16:15:00,81.0,61.0,30.05,NNE,13,3.0,-999.0,50,-99.99,,,-99.99,,2013-08-05 20:15:00,
2013-08-05 16:28:00,80.0,59.0,30.05,NNE,15,3.0,-999.0,49,-99.99,,,-99.99,,2013-08-05 20:28:00,
2013-08-05 16:48:00,79.0,59.0,30.04,NNE,33,1.0,-999.0,51,-99.99,,,-99.99,,2013-08-05 20:48:00,
2013-08-05 17:08:00,79.0,62.0,30.04,NNE,33,1.0,-999.0,57,-99.99,,,-99.99,,2013-08-05 21:08:00,
2013-08-05 17:26:00,79.0,60.0,30.04,NNE,33,2.0,-999.0,52,-99.99,,,-99.99,,2013-08-05 21:26:00,
2013-08-05 17:46:00,78.0,59.0,30.04,SSE,148,0.0,-999.0,53,-99.99,,,-99.99,,2013-08-05 21:46:00,
2013-08-05 18:05:00,80.0,60.0,30.04,NE,51,2.0,-999.0,50,-99.99,,,-99.99,,2013-08-05 22:05:00,
2013-08-05 18:14:00,80.0,61.0,30.04,NE,51,2.0,-999.0,52,-99.99,,,-99.99,,2013-08-05 22:14:00,
2013-08-05 18:26:00,80.0,61.0,30.04,NE,51,2.0,-999.0,52,-99.99,,,-99.99,,2013-08-05 22:26:00,
2013-08-05 18:37:00,80.0,58.0,30.03,NE,51,1.0,-999.0,47,-99.99,,,-99.99,,2013-08-05 22:37:00,
2013-08-05 18:44:00,79.0,61.0,30.03,NE,51,1.0,-999.0,55,-99.99,,,-99.99,,2013-08-05 22:44:00,
2013-08-05 18:53:00,79.0,61.0,30.03,NE,51,1.0,-999.0,55,-99.99,,,-99.99,,2013-08-05 22:53:00,
2013-08-05 19:07:00,78.0,62.0,30.03,NE,53,1.0,-999.0,58,-99.99,,,-99.99,,2013-08-05 23:07:00,
2013-08-05 19:16:00,78.0,62.0,30.03,NE,53,1.0,-999.0,58,-99.99,,,-99.99,,2013-08-05 23:16:00,
2013-08-05 19:27:00,78.0,62.0,30.03,NE,53,1.0,-999.0,58,-99.99,,,-99.99,,2013-08-05 23:27:00,
2013-08-05 19:33:00,78.0,63.0,30.01,NE,53,0.0,-999.0,60,-99.99,,,-99.99,,2013-08-05 23:33:00,
2013-08-05 20:02:00,75.0,65.0,30.01,NE,53,0.0,-999.0,72,-99.99,,,-99.99,,2013-08-06 00:02:00,
2013-08-05 20:15:00,75.0,66.0,30.01,NE,53,0.0,-999.0,73,-99.99,,,-99.99,,2013-08-06 00:15:00,
2013-08-05 20:24:00,75.0,66.0,30.01,NE,53,0.0,-999.0,73,-99.99,,,-99.99,,2013-08-06 00:24:00,
2013-08-05 20:37:00,73.0,65.0,30.00,NE,53,0.0,-999.0,76,-99.99,,,-99.99,,2013-08-06 00:37:00,
2013-08-05 20:45:00,72.0,65.0,30.00,NE,53,0.0,-999.0,78,-99.99,,,-99.99,,2013-08-06 00:45:00,
2013-08-05 20:57:00,72.0,65.0,30.00,NE,53,0.0,-999.0,78,-99.99,,,-99.99,,2013-08-06 00:57:00,
2013-08-05 21:08:00,70.0,64.0,30.00,NE,53,0.0,-999.0,80,-99.99,,,-99.99,,2013-08-06 01:08:00,
2013-08-05 21:14:00,70.0,64.0,30.00,NE,53,0.0,-999.0,81,-99.99,,,-99.99,,2013-08-06 01:14:00,
2013-08-05 21:40:00,68.0,63.0,30.00,NE,53,0.0,-999.0,84,-99.99,,,-99.99,,2013-08-06 01:40:00,
2013-08-05 21:49:00,66.0,61.0,30.00,NE,53,0.0,-999.0,85,-99.99,,,-99.99,,2013-08-06 01:49:00,
2013-08-05 22:08:00,66.0,62.0,30.00,NE,53,0.0,-999.0,87,-99.99,,,-99.99,,2013-08-06 02:08:00,
2013-08-05 22:15:00,66.0,62.0,30.00,NE,53,0.0,-999.0,87,-99.99,,,-99.99,,2013-08-06 02:15:00,
2013-08-05 22:27:00,66.0,62.0,30.00,NE,53,0.0,-999.0,87,-99.99,,,-99.99,,2013-08-06 02:27:00,
2013-08-05 22:53:00,65.0,62.0,30.01,NE,53,0.0,-999.0,91,-99.99,,,-99.99,,2013-08-06 02:53:00,
2013-08-05 23:26:00,66.0,63.0,30.01,NE,53,0.0,-999.0,91,-99.99,,,-99.99,,2013-08-06 03:26:00,
2013-08-05 23:52:00,66.0,63.0,30.01,NE,53,0.0,-999.0,91,-99.99,,,-99.99,,2013-08-06 03:52:00,